< Typhoon 198808 1988 Season Typhoon 198810 >
Typhoon 198809 (BILL)
General InformationTrack Information on Google MapsDetailed Wind InformationList of All Images || Disaster Info.ResourceGoogle EarthGE AnimationAtom FeedGeoJSON
Detalied Best Track (Time Zone = UTC)
Year Month Day Hour Lat. Long. Pressure (hPa) Wind (kt) Class Image Chart
1988 8 4 18 21.0 128.0 1002 0 2 Image Chart
1988 8 5 00 21.5 128.0 1002 0 2 Image Chart
1988 8 5 06 22.0 128.1 1002 0 2 Image Chart
1988 8 5 12 22.9 128.2 1002 0 2 Image Chart
1988 8 5 18 23.9 128.5 1000 0 2 Image Chart
1988 8 6 00 24.8 128.2 998 35 3 Image Chart
1988 8 6 06 25.2 128.1 996 35 3 Image Chart
1988 8 6 12 25.5 127.9 994 35 3 Image Chart
1988 8 6 18 26.5 126.6 994 45 3 Image Chart
1988 8 7 00 27.5 125.4 990 45 3 Image Chart
1988 8 7 06 28.5 124.4 985 45 3 Image Chart
1988 8 7 12 29.0 123.0 985 45 3 Image Chart
1988 8 7 18 29.5 121.1 985 40 3 Image Chart
1988 8 8 00 30.5 119.4 992 40 3 Image Chart
1988 8 8 06 31.2 117.8 996 35 3 Image Chart
1988 8 8 12 31.6 116.6 996 35 3 Image Chart
1988 8 8 18 32.0 115.0 998 0 2 Image Chart
1988 8 9 00 32.0 114.0 1000 0 2 Image Chart
1988 8 9 06 32.0 113.0 1000 0 2 Image Chart
1988 8 9 12 32.0 112.0 1000 0 2 Image Chart
Japan Meteorological Agency Best Track Data | Correction Date : 1992-10-21
< Typhoon 198808 1988 Season Typhoon 198810 >

Help